createdAt,value
2022-08-03T00:00:26.929Z,1542.4
2022-08-03T00:01:26.938Z,1542.3
2022-08-03T00:02:26.934Z,1542.2
2022-08-03T00:03:26.976Z,1542.2
2022-08-03T00:04:34.151Z,1542.1
2022-08-03T00:05:26.936Z,1542.1
2022-08-03T00:06:26.939Z,1542.1
2022-08-03T00:07:26.930Z,1542.3
2022-08-03T00:08:26.934Z,1542.1
2022-08-03T00:09:26.951Z,1542
2022-08-03T00:10:26.937Z,1541.9
2022-08-03T00:11:26.943Z,1542
2022-08-03T00:12:26.938Z,1541.9
2022-08-03T00:13:26.935Z,1541.9
2022-08-03T00:14:27.003Z,1541.7
2022-08-03T00:15:26.953Z,1541.8
2022-08-03T00:16:26.947Z,1541.9
2022-08-03T00:17:26.945Z,1542.1
2022-08-03T00:18:26.935Z,1541.8
2022-08-03T00:19:26.946Z,1541.8
2022-08-03T00:20:26.941Z,1541.8
2022-08-03T00:21:26.943Z,1541.9
2022-08-03T00:22:26.938Z,1541.9
2022-08-03T00:23:30.521Z,1541.8
2022-08-03T00:24:26.975Z,1541.8
2022-08-03T00:25:26.944Z,1541.8
2022-08-03T00:26:26.941Z,1541.7
2022-08-03T00:27:26.940Z,1541.6
2022-08-03T00:28:26.941Z,1541.7
2022-08-03T00:29:27.013Z,1541.7
2022-08-03T00:30:30.906Z,1541.6
2022-08-03T00:31:51.644Z,1541.6
2022-08-03T00:32:26.943Z,1541.5
2022-08-03T00:33:26.954Z,1541.4
2022-08-03T00:34:36.486Z,1541.4
2022-08-03T00:35:36.835Z,1541.2
2022-08-03T00:36:26.944Z,1541.3
2022-08-03T00:37:41.443Z,1541.3
2022-08-03T00:38:26.953Z,1541.3
2022-08-03T00:39:26.958Z,1541.4
2022-08-03T00:40:26.956Z,1541.5
2022-08-03T00:41:26.953Z,1541.5
2022-08-03T00:42:28.538Z,1541.6
2022-08-03T00:43:26.953Z,1541.5
2022-08-03T00:44:27.185Z,1541.4
2022-08-03T00:45:26.952Z,1541.4
2022-08-03T00:46:26.954Z,1541.5
2022-08-03T00:47:26.961Z,1541.5
2022-08-03T00:48:32.123Z,1541.6
2022-08-03T00:49:27.048Z,1541.6
2022-08-03T00:50:26.963Z,1541.6
2022-08-03T00:51:26.952Z,1541.4
2022-08-03T00:52:26.949Z,1541.4
2022-08-03T00:53:26.953Z,1541.4
2022-08-03T00:54:26.963Z,1541.6
2022-08-03T00:55:26.959Z,1541.4
2022-08-03T00:56:26.958Z,1541.4
2022-08-03T00:57:26.965Z,1541.4
2022-08-03T00:58:26.957Z,1541.4
2022-08-03T00:59:26.969Z,1541.2
2022-08-03T01:00:26.961Z,1541.1
2022-08-03T01:01:27.028Z,1541.1
2022-08-03T01:02:26.964Z,1541.1
2022-08-03T01:03:26.961Z,1541.2
2022-08-03T01:04:26.968Z,1541.3
2022-08-03T01:05:26.964Z,1541.3
2022-08-03T01:06:26.964Z,1541.2
2022-08-03T01:07:26.959Z,1541.2
2022-08-03T01:08:26.982Z,1541
2022-08-03T01:09:26.969Z,1541.2
2022-08-03T01:10:26.966Z,1541.2
2022-08-03T01:11:26.975Z,1541.2
2022-08-03T01:12:26.966Z,1541.1
2022-08-03T01:14:04.267Z,1540.8
2022-08-03T01:14:26.975Z,1540.8
2022-08-03T01:15:26.974Z,1540.6
2022-08-03T01:16:35.834Z,1540.7
2022-08-03T01:17:26.968Z,1540.7
2022-08-03T01:18:26.964Z,1540.7
2022-08-03T01:19:26.996Z,1540.5
2022-08-03T01:20:26.970Z,1539.9
2022-08-03T01:21:26.972Z,1539.6
2022-08-03T01:22:26.967Z,1539.9
2022-08-03T01:23:28.950Z,1540.2
2022-08-03T01:24:26.972Z,1540
2022-08-03T01:25:26.975Z,1540.1
2022-08-03T01:26:26.969Z,1540.2
2022-08-03T01:27:26.982Z,1540.3
2022-08-03T01:28:26.970Z,1540.1
2022-08-03T01:29:27.054Z,1540.2
2022-08-03T01:30:26.978Z,1540.1
2022-08-03T01:31:26.978Z,1540
2022-08-03T01:32:58.898Z,1539.8
2022-08-03T01:33:26.981Z,1539.8
2022-08-03T01:34:26.980Z,1539.8
2022-08-03T01:35:26.975Z,1539.9
2022-08-03T01:36:26.994Z,1539.9
2022-08-03T01:37:26.978Z,1539.7
2022-08-03T01:38:26.977Z,1539.9
2022-08-03T01:39:26.981Z,1539.7
2022-08-03T01:40:27.006Z,1539.4
2022-08-03T01:41:26.979Z,1539.5
2022-08-03T01:42:26.976Z,1539.3
2022-08-03T01:44:28.543Z,1539.6
2022-08-03T01:44:30.462Z,1539.5
2022-08-03T01:45:26.986Z,1539.5
2022-08-03T01:46:26.996Z,1539.4
2022-08-03T01:47:26.978Z,1539.5
2022-08-03T01:48:26.989Z,1539.5
2022-08-03T01:49:27.026Z,1539.3
2022-08-03T01:50:26.994Z,1539.3
2022-08-03T01:52:03.447Z,1539.2
2022-08-03T01:52:26.983Z,1539.3
2022-08-03T01:53:26.999Z,1539.3
2022-08-03T01:54:26.987Z,1539.2
2022-08-03T01:55:26.995Z,1539.3
2022-08-03T01:56:26.990Z,1539.3
2022-08-03T01:57:26.992Z,1539.1
2022-08-03T01:58:26.990Z,1539
2022-08-03T01:59:26.989Z,1539
2022-08-03T02:00:26.991Z,1539
2022-08-03T02:01:27.096Z,1539
2022-08-03T02:02:33.238Z,1538.9
2022-08-03T02:03:26.995Z,1539
2022-08-03T02:04:26.993Z,1539.2
2022-08-03T02:05:27.225Z,1539.1
2022-08-03T02:07:00.158Z,1539.1
2022-08-03T02:07:26.993Z,1539
2022-08-03T02:08:26.988Z,1538.9
2022-08-03T02:09:26.997Z,1538.9
2022-08-03T02:10:34.508Z,1538.8
2022-08-03T02:11:27.000Z,1538.9
2022-08-03T02:12:26.999Z,1539
2022-08-03T02:13:27.005Z,1538.9
2022-08-03T02:14:26.999Z,1538.8
2022-08-03T02:15:26.999Z,1538.7
2022-08-03T02:16:26.999Z,1538.8
2022-08-03T02:17:38.547Z,1538.8
2022-08-03T02:18:26.990Z,1538.9
2022-08-03T02:19:26.993Z,1538.8
2022-08-03T02:22:26.993Z,1538.9
2022-08-03T02:23:26.999Z,1538.6
2022-08-03T02:24:37.276Z,1538.7
2022-08-03T02:25:37.273Z,1538.7
2022-08-03T02:26:37.287Z,1538.7
2022-08-03T02:27:26.995Z,1538.9
2022-08-03T02:28:26.990Z,1538.8
2022-08-03T02:29:39.762Z,1538.7
2022-08-03T02:30:27.015Z,1538.7
2022-08-03T02:31:27.002Z,1538.7
2022-08-03T02:32:26.998Z,1538.6
2022-08-03T02:33:27.008Z,1538.7
2022-08-03T02:34:27.011Z,1538.5
2022-08-03T02:35:26.999Z,1538.6
2022-08-03T02:36:27.000Z,1538.6
2022-08-03T02:37:27.010Z,1538.5
2022-08-03T02:38:27.001Z,1538.5
2022-08-03T02:39:27.007Z,1538.4
2022-08-03T02:40:27.011Z,1538.5
2022-08-03T02:41:27.004Z,1538.7
2022-08-03T02:42:27.039Z,1538.6
2022-08-03T02:43:27.014Z,1538.8
2022-08-03T02:44:27.016Z,1538.6
2022-08-03T02:45:26.999Z,1538.7
2022-08-03T02:46:27.004Z,1538.5
2022-08-03T02:47:27.011Z,1538.6
2022-08-03T02:48:27.010Z,1538.4
2022-08-03T02:49:50.776Z,1538.5
2022-08-03T02:50:27.014Z,1538.5
2022-08-03T02:51:27.007Z,1538.4
2022-08-03T02:52:27.015Z,1538.4
2022-08-03T02:53:27.014Z,1538.2
2022-08-03T02:54:27.012Z,1538.1
2022-08-03T02:55:27.007Z,1538.4
2022-08-03T02:56:27.021Z,1538.5
2022-08-03T02:57:27.030Z,1538.1
2022-08-03T02:58:27.034Z,1538.3
2022-08-03T02:59:27.016Z,1538.2
2022-08-03T03:00:28.194Z,1538.2
2022-08-03T03:01:27.080Z,1538.2
2022-08-03T03:02:27.011Z,1538.4
2022-08-03T03:03:27.080Z,1538.2
2022-08-03T03:04:29.327Z,1538.3
2022-08-03T03:05:53.360Z,1538.4
2022-08-03T03:06:27.022Z,1538.4
2022-08-03T03:07:27.017Z,1538.4
2022-08-03T03:08:28.616Z,1538.3
2022-08-03T03:09:27.029Z,1538.4
2022-08-03T03:10:27.043Z,1538.3
2022-08-03T03:11:27.012Z,1538.1
2022-08-03T03:12:27.035Z,1537.9
2022-08-03T03:13:27.021Z,1538
2022-08-03T03:14:33.757Z,1537.9
2022-08-03T03:15:27.015Z,1538
2022-08-03T03:16:27.024Z,1538
2022-08-03T03:17:27.023Z,1538.1
2022-08-03T03:18:27.020Z,1538
2022-08-03T03:19:27.036Z,1538.1
2022-08-03T03:20:29.289Z,1537.9
2022-08-03T03:21:27.022Z,1537.8
2022-08-03T03:22:27.017Z,1537.8
2022-08-03T03:23:27.037Z,1538
2022-08-03T03:24:27.025Z,1537.8
2022-08-03T03:25:27.022Z,1537.9
2022-08-03T03:26:27.029Z,1537.9
2022-08-03T03:27:27.030Z,1537.9
2022-08-03T03:28:27.034Z,1537.7
2022-08-03T03:29:27.031Z,1537.7
2022-08-03T03:30:27.029Z,1537.7
2022-08-03T03:31:27.033Z,1537.5
2022-08-03T03:32:27.027Z,1537.5
2022-08-03T03:33:28.542Z,1537.5
2022-08-03T03:34:27.027Z,1537.7
2022-08-03T03:35:27.029Z,1537.7
2022-08-03T03:36:28.027Z,1537.8
2022-08-03T03:37:27.026Z,1537.8
2022-08-03T03:38:27.020Z,1537.8
2022-08-03T03:39:27.067Z,1538
2022-08-03T03:40:27.046Z,1538.1
2022-08-03T03:41:27.026Z,1538
2022-08-03T03:42:27.037Z,1538.1
2022-08-03T03:43:27.028Z,1538.3
2022-08-03T03:44:27.034Z,1538.3
2022-08-03T03:45:27.032Z,1538.3
2022-08-03T03:46:27.036Z,1538.2
2022-08-03T03:47:32.626Z,1538.2
2022-08-03T03:48:27.029Z,1538.3
2022-08-03T03:50:27.036Z,1538.2
2022-08-03T03:51:27.027Z,1538.2
2022-08-03T03:52:27.035Z,1538.3
2022-08-03T03:53:27.040Z,1538.2
2022-08-03T03:54:29.295Z,1538.2
2022-08-03T03:55:27.059Z,1538.3
2022-08-03T03:57:27.038Z,1538.2
2022-08-03T03:58:27.038Z,1538.1
2022-08-03T03:59:27.044Z,1538.2
2022-08-03T04:00:27.125Z,1538
2022-08-03T04:01:27.043Z,1538
2022-08-03T04:02:27.038Z,1538.1
2022-08-03T04:03:27.045Z,1537.9
2022-08-03T04:04:27.040Z,1537.9
2022-08-03T04:05:27.059Z,1537.9
2022-08-03T04:06:27.045Z,1537.9
2022-08-03T04:07:27.039Z,1537.9
2022-08-03T04:08:27.044Z,1538
2022-08-03T04:09:27.054Z,1537.9
2022-08-03T04:10:27.042Z,1537.9
2022-08-03T04:11:30.072Z,1537.8
2022-08-03T04:12:27.052Z,1537.8
2022-08-03T04:13:27.058Z,1537.9
2022-08-03T04:14:27.051Z,1537.8
2022-08-03T04:15:27.048Z,1537.9
2022-08-03T04:16:27.043Z,1538
2022-08-03T04:17:27.044Z,1537.8
2022-08-03T04:18:27.057Z,1537.8
2022-08-03T04:19:27.049Z,1537.9
2022-08-03T04:20:27.042Z,1537.8
2022-08-03T04:21:27.051Z,1537.8
2022-08-03T04:22:27.052Z,1537.7
2022-08-03T04:23:27.046Z,1537.8
2022-08-03T04:24:27.045Z,1537.7
2022-08-03T04:25:27.056Z,1537.7
2022-08-03T04:26:27.043Z,1537.7
2022-08-03T04:27:27.059Z,1537.8
2022-08-03T04:28:30.542Z,1537.8
2022-08-03T04:29:27.055Z,1537.8
2022-08-03T04:30:27.047Z,1537.8
2022-08-03T04:31:27.056Z,1537.7
2022-08-03T04:32:27.062Z,1537.9
2022-08-03T04:33:29.237Z,1537.8
2022-08-03T04:34:27.053Z,1537.8
2022-08-03T04:36:01.800Z,1537.9
2022-08-03T04:36:27.053Z,1537.9
2022-08-03T04:37:27.055Z,1537.7
2022-08-03T04:38:27.057Z,1537.7
2022-08-03T04:39:27.049Z,1537.8
2022-08-03T04:40:29.846Z,1537.7
2022-08-03T04:41:27.073Z,1537.9
2022-08-03T04:42:27.054Z,1537.9
2022-08-03T04:43:27.055Z,1537.9
2022-08-03T04:44:28.275Z,1537.9
2022-08-03T04:45:27.056Z,1537.8
2022-08-03T04:46:27.061Z,1538
2022-08-03T04:47:27.060Z,1538
2022-08-03T04:48:27.069Z,1538.1
2022-08-03T04:49:27.164Z,1538
2022-08-03T04:50:27.059Z,1538.1
2022-08-03T04:51:27.055Z,1538.2
2022-08-03T04:52:27.071Z,1538.4
2022-08-03T04:53:27.070Z,1538.5
2022-08-03T04:54:27.059Z,1538.5
2022-08-03T04:55:27.066Z,1538.5
2022-08-03T04:56:27.075Z,1538.7
2022-08-03T04:57:27.072Z,1538.5
2022-08-03T04:58:27.069Z,1538.7
2022-08-03T04:59:27.070Z,1538.5
2022-08-03T05:00:27.068Z,1538.7
2022-08-03T05:01:27.148Z,1538.7
2022-08-03T05:02:27.071Z,1538.6
2022-08-03T05:03:27.066Z,1538.7
2022-08-03T05:04:27.064Z,1538.7
2022-08-03T05:05:49.658Z,1538.8
2022-08-03T05:06:27.067Z,1539.1
2022-08-03T05:07:34.092Z,1539
2022-08-03T05:08:28.180Z,1539.1
2022-08-03T05:09:49.837Z,1539.3
2022-08-03T05:10:27.074Z,1539.4
2022-08-03T05:11:27.067Z,1539.3
2022-08-03T05:13:27.076Z,1539.5
2022-08-03T05:14:28.049Z,1539.7
2022-08-03T05:15:27.072Z,1539.9
2022-08-03T05:16:27.077Z,1540.1
2022-08-03T05:17:27.071Z,1540.3
2022-08-03T05:18:27.070Z,1540.4
2022-08-03T05:19:27.069Z,1540.4
2022-08-03T05:20:27.069Z,1540.4
2022-08-03T05:21:27.068Z,1540.4
2022-08-03T05:22:27.077Z,1540.6
2022-08-03T05:23:27.074Z,1540.6
2022-08-03T05:24:27.079Z,1540.5
2022-08-03T05:25:27.540Z,1540.9
2022-08-03T05:26:27.067Z,1540.9
2022-08-03T05:27:27.077Z,1541
2022-08-03T05:28:27.076Z,1541
2022-08-03T05:29:27.095Z,1541.4
2022-08-03T05:30:33.619Z,1541.5
2022-08-03T05:32:27.082Z,1541.5
2022-08-03T05:33:27.085Z,1541.6
2022-08-03T05:34:27.081Z,1541.6
2022-08-03T05:36:02.062Z,1541.9
2022-08-03T05:36:27.081Z,1542
2022-08-03T05:37:27.078Z,1542
2022-08-03T05:38:28.471Z,1542.2
2022-08-03T05:39:27.079Z,1542.3
2022-08-03T05:40:27.086Z,1542.4
2022-08-03T05:41:37.481Z,1542.5
2022-08-03T05:42:27.076Z,1542.7
2022-08-03T05:43:27.080Z,1542.6
2022-08-03T05:44:27.113Z,1542.9
2022-08-03T05:45:28.489Z,1542.8
2022-08-03T05:46:27.097Z,1542.9
2022-08-03T05:47:27.085Z,1542.9
2022-08-03T05:48:27.098Z,1543
2022-08-03T05:49:27.199Z,1543.1
2022-08-03T05:50:27.102Z,1542.9
2022-08-03T05:51:27.084Z,1543.4
2022-08-03T05:52:27.091Z,1543.7
2022-08-03T05:53:27.088Z,1543.7
2022-08-03T05:54:55.308Z,1543.5
2022-08-03T05:55:27.091Z,1543.5
2022-08-03T05:56:27.092Z,1543.6
2022-08-03T05:57:27.084Z,1543.6
2022-08-03T05:58:29.821Z,1543.5
2022-08-03T05:59:38.220Z,1543.7
2022-08-03T06:00:27.090Z,1543.8
2022-08-03T06:01:27.155Z,1543.9
2022-08-03T06:02:27.100Z,1544.2
2022-08-03T06:03:27.098Z,1544.5
2022-08-03T06:04:27.101Z,1544.5
2022-08-03T06:05:27.096Z,1544.5
2022-08-03T06:06:31.891Z,1544.7
2022-08-03T06:07:27.094Z,1544.6
2022-08-03T06:08:27.102Z,1544.9
2022-08-03T06:09:31.918Z,1545.1
2022-08-03T06:10:37.242Z,1545.2
2022-08-03T06:11:27.114Z,1545.5
2022-08-03T06:12:27.104Z,1545.5
2022-08-03T06:13:27.099Z,1545.9
2022-08-03T06:14:27.114Z,1545.7
2022-08-03T06:15:27.106Z,1545.5
2022-08-03T06:16:27.101Z,1545.7
2022-08-03T06:17:27.105Z,1546.2
2022-08-03T06:18:27.099Z,1546.4
2022-08-03T06:19:27.097Z,1546.6
2022-08-03T06:20:27.373Z,1546.5
2022-08-03T06:21:27.208Z,1546.3
2022-08-03T06:22:27.196Z,1546.3
2022-08-03T06:23:28.727Z,1547.1
2022-08-03T06:24:27.115Z,1547.4
2022-08-03T06:25:27.111Z,1547.8
2022-08-03T06:26:27.424Z,1547.9
2022-08-03T06:27:36.454Z,1547.1
2022-08-03T06:28:52.849Z,1547.7
2022-08-03T06:29:27.107Z,1548.4
2022-08-03T06:30:27.178Z,1548.9
2022-08-03T06:31:32.860Z,1548.8
2022-08-03T06:32:27.109Z,1548.7
2022-08-03T06:34:30.907Z,1549.1
2022-08-03T06:34:35.061Z,1548.9
2022-08-03T06:35:27.112Z,1549.4
2022-08-03T06:36:27.108Z,1549.2
2022-08-03T06:37:27.143Z,1549.6
2022-08-03T06:38:27.109Z,1549.8
2022-08-03T06:39:27.114Z,1550.2
2022-08-03T06:40:27.182Z,1550
2022-08-03T06:41:27.107Z,1550.4
2022-08-03T06:42:27.109Z,1549.8
2022-08-03T06:43:27.118Z,1549.8
2022-08-03T06:44:27.198Z,1550
2022-08-03T06:45:31.888Z,1549.7
2022-08-03T06:46:27.131Z,1549.7
2022-08-03T06:47:27.115Z,1549
2022-08-03T06:48:27.117Z,1548.6
2022-08-03T06:49:27.217Z,1548.9
2022-08-03T06:50:27.212Z,1548.7
2022-08-03T06:52:05.038Z,1548.6
2022-08-03T06:52:38.212Z,1549.1
2022-08-03T06:53:27.115Z,1549.3
2022-08-03T06:54:27.112Z,1549.5
2022-08-03T06:56:27.126Z,1549.8
2022-08-03T06:57:27.117Z,1549.9
2022-08-03T06:58:27.129Z,1550
2022-08-03T07:00:10.870Z,1549.9
2022-08-03T07:00:27.122Z,1549.7
2022-08-03T07:01:27.169Z,1549.1
2022-08-03T07:02:28.457Z,1549.4
2022-08-03T07:03:27.124Z,1549.8
2022-08-03T07:04:27.123Z,1549.5
2022-08-03T07:05:27.128Z,1549.2
2022-08-03T07:07:27.131Z,1549.3
2022-08-03T07:08:33.461Z,1548.9
2022-08-03T07:09:27.596Z,1548.9
2022-08-03T07:10:27.128Z,1549.4
2022-08-03T07:11:27.137Z,1549.6
2022-08-03T07:12:27.141Z,1549.8
2022-08-03T07:13:27.129Z,1550.2
2022-08-03T07:14:27.144Z,1550.9
2022-08-03T07:15:54.181Z,1551.7
2022-08-03T07:16:27.141Z,1551.6
2022-08-03T07:17:27.132Z,1552.3
2022-08-03T07:18:29.968Z,1552.1
2022-08-03T07:19:27.136Z,1551.9
2022-08-03T07:20:30.985Z,1551.6
2022-08-03T07:21:27.138Z,1551.9
2022-08-03T07:22:27.137Z,1552
2022-08-03T07:23:27.139Z,1552.5
2022-08-03T07:24:27.129Z,1552.9
2022-08-03T07:25:27.134Z,1551.7
2022-08-03T07:26:27.136Z,1552.2
2022-08-03T07:27:27.294Z,1553
2022-08-03T07:28:27.126Z,1552.8
2022-08-03T07:29:27.137Z,1552.9
2022-08-03T07:31:27.136Z,1554.3
2022-08-03T07:32:27.139Z,1555.5
2022-08-03T07:33:27.143Z,1555.5
2022-08-03T07:34:27.140Z,1556.2
2022-08-03T07:35:27.148Z,1555.2
2022-08-03T07:36:27.145Z,1555
2022-08-03T07:37:27.136Z,1554.6
2022-08-03T07:38:27.137Z,1554.1
2022-08-03T07:39:27.136Z,1554.6
2022-08-03T07:40:31.704Z,1554.4
2022-08-03T07:41:27.143Z,1554.5
2022-08-03T07:42:27.153Z,1553.9
2022-08-03T07:43:27.146Z,1554.3
2022-08-03T07:44:27.182Z,1554.7
2022-08-03T07:45:27.162Z,1556
2022-08-03T07:46:27.138Z,1556.9
2022-08-03T07:47:35.628Z,1557.6
2022-08-03T07:48:27.170Z,1556.7
2022-08-03T07:49:27.192Z,1557.5
2022-08-03T07:50:27.154Z,1558.3
2022-08-03T07:51:27.142Z,1558.6
2022-08-03T07:52:28.370Z,1558.1
2022-08-03T07:53:27.153Z,1557.5
2022-08-03T07:54:27.145Z,1556.9
2022-08-03T07:55:27.162Z,1558.2
2022-08-03T07:56:27.147Z,1557.9
2022-08-03T07:57:27.155Z,1559.1
2022-08-03T07:58:27.151Z,1560.4
2022-08-03T07:59:27.153Z,1560.5
2022-08-03T08:00:27.150Z,1559.9
2022-08-03T08:01:27.268Z,1559.7
2022-08-03T08:02:27.153Z,1558.7
2022-08-03T08:03:27.160Z,1559.6
2022-08-03T08:04:27.390Z,1560.1
2022-08-03T08:05:27.146Z,1560.3
2022-08-03T08:06:27.157Z,1559.7
2022-08-03T08:07:27.153Z,1560
2022-08-03T08:08:27.152Z,1559.3
2022-08-03T08:09:27.153Z,1558.9
2022-08-03T08:10:27.162Z,1559.6
2022-08-03T08:11:27.160Z,1558.2
2022-08-03T08:12:27.159Z,1559.9
2022-08-03T08:13:27.153Z,1558.9
2022-08-03T08:14:27.158Z,1558.9
2022-08-03T08:15:27.155Z,1560.2
2022-08-03T08:16:27.151Z,1559.8
2022-08-03T08:17:27.159Z,1558.3
2022-08-03T08:18:27.174Z,1559.4
2022-08-03T08:19:27.167Z,1559.8
2022-08-03T08:20:30.489Z,1560.1
2022-08-03T08:21:27.159Z,1560.5
2022-08-03T08:22:30.089Z,1561.5
2022-08-03T08:23:37.879Z,1560.1
2022-08-03T08:24:27.156Z,1559.8
2022-08-03T08:25:27.163Z,1560.5
2022-08-03T08:26:27.167Z,1561.5
2022-08-03T08:27:27.161Z,1562.2
2022-08-03T08:28:32.191Z,1562.4
2022-08-03T08:29:27.162Z,1563.4
2022-08-03T08:30:27.162Z,1563.3
2022-08-03T08:31:27.169Z,1563.9
2022-08-03T08:32:27.168Z,1564.2
2022-08-03T08:33:33.203Z,1563.5
2022-08-03T08:34:27.168Z,1564.2
2022-08-03T08:35:27.182Z,1562.9
2022-08-03T08:36:27.188Z,1563.4
2022-08-03T08:37:27.174Z,1562.1
2022-08-03T08:38:27.172Z,1559.9
2022-08-03T08:39:27.179Z,1561.7
2022-08-03T08:40:27.184Z,1562.8
2022-08-03T08:41:32.333Z,1563.6
2022-08-03T08:42:27.170Z,1564.5
2022-08-03T08:43:27.175Z,1563.4
2022-08-03T08:44:27.178Z,1563.4
2022-08-03T08:45:27.173Z,1563.2
2022-08-03T08:46:27.172Z,1563.3
2022-08-03T08:47:27.181Z,1563.7
2022-08-03T08:48:27.178Z,1564.2
2022-08-03T08:49:27.239Z,1564.8
2022-08-03T08:50:28.351Z,1565
2022-08-03T08:51:52.722Z,1564.8
2022-08-03T08:52:31.988Z,1565.3
2022-08-03T08:53:27.765Z,1565.1
2022-08-03T08:54:27.185Z,1564.3
2022-08-03T08:56:27.173Z,1565.1
2022-08-03T08:57:42.230Z,1565.5
2022-08-03T08:58:27.179Z,1565.2
2022-08-03T08:59:27.185Z,1565.4
2022-08-03T09:00:27.184Z,1564.8
2022-08-03T09:01:27.194Z,1566.5
2022-08-03T09:02:27.189Z,1566.8
2022-08-03T09:03:30.052Z,1567.1
2022-08-03T09:04:27.180Z,1568
2022-08-03T09:05:54.664Z,1566.9
2022-08-03T09:06:27.190Z,1565.6
2022-08-03T09:07:27.179Z,1564.2
2022-08-03T09:08:27.190Z,1564.4
2022-08-03T09:10:00.271Z,1565.7
2022-08-03T09:10:27.184Z,1566.4
2022-08-03T09:11:54.483Z,1567.8
2022-08-03T09:12:41.864Z,1568.4
2022-08-03T09:13:27.196Z,1568.3
2022-08-03T09:14:36.808Z,1569.2
2022-08-03T09:15:27.193Z,1570
2022-08-03T09:16:27.195Z,1569.8
2022-08-03T09:17:27.194Z,1569.3
2022-08-03T09:18:27.193Z,1567.7
2022-08-03T09:19:27.202Z,1566.1
2022-08-03T09:20:27.214Z,1565
2022-08-03T09:21:32.301Z,1565.2
2022-08-03T09:22:27.199Z,1566.8
2022-08-03T09:23:59.711Z,1567.9
2022-08-03T09:25:27.302Z,1569.7
2022-08-03T09:26:27.212Z,1570.6
2022-08-03T09:27:27.199Z,1571.2
2022-08-03T09:28:56.556Z,1570.9
2022-08-03T09:29:27.205Z,1571.9
2022-08-03T09:30:33.608Z,1572.8
2022-08-03T09:31:27.205Z,1572.7
2022-08-03T09:32:27.199Z,1572
2022-08-03T09:33:27.203Z,1572.5
2022-08-03T09:34:27.225Z,1572.9
2022-08-03T09:35:51.617Z,1570.3
2022-08-03T09:36:27.211Z,1568
2022-08-03T09:38:12.243Z,1570.1
2022-08-03T09:38:27.201Z,1571
2022-08-03T09:39:42.064Z,1572.2
2022-08-03T09:40:27.210Z,1570.6
2022-08-03T09:41:27.209Z,1570.7
2022-08-03T09:42:27.210Z,1572
2022-08-03T09:43:27.214Z,1572.7
2022-08-03T09:44:27.229Z,1572.8
2022-08-03T09:45:27.339Z,1572.3
2022-08-03T09:46:27.230Z,1572.9
2022-08-03T09:47:28.395Z,1572.8
2022-08-03T09:48:27.210Z,1572.8
2022-08-03T09:49:27.311Z,1573.1
2022-08-03T09:50:27.214Z,1573.2
2022-08-03T09:51:33.314Z,1573.6
2022-08-03T09:52:37.653Z,1574
2022-08-03T09:53:27.218Z,1571.7
2022-08-03T09:54:27.216Z,1571.1
2022-08-03T09:56:33.688Z,1571.7
2022-08-03T09:56:36.307Z,1572.5
2022-08-03T09:57:27.220Z,1573.3
2022-08-03T09:58:27.217Z,1573.6
2022-08-03T09:59:27.238Z,1573.9
2022-08-03T10:00:27.214Z,1573.9
2022-08-03T10:01:27.276Z,1574
2022-08-03T10:02:27.234Z,1573.4
2022-08-03T10:03:27.227Z,1573.7
2022-08-03T10:04:27.222Z,1574
2022-08-03T10:05:27.230Z,1573.9
2022-08-03T10:06:29.126Z,1572.2
2022-08-03T10:07:27.222Z,1573.2
2022-08-03T10:08:27.235Z,1573.7
2022-08-03T10:09:27.229Z,1573.9
2022-08-03T10:10:30.575Z,1574.4
2022-08-03T10:11:27.231Z,1574.7
2022-08-03T10:12:27.226Z,1575
2022-08-03T10:13:27.227Z,1574.3
2022-08-03T10:14:27.230Z,1574.5
2022-08-03T10:16:21.203Z,1575.7
2022-08-03T10:16:27.270Z,1575.3
2022-08-03T10:17:27.267Z,1576.1
2022-08-03T10:18:27.234Z,1576.8
2022-08-03T10:19:27.227Z,1577
2022-08-03T10:20:27.248Z,1577.5
2022-08-03T10:21:27.231Z,1575.7
2022-08-03T10:22:27.237Z,1575.5
2022-08-03T10:23:28.708Z,1576.3
2022-08-03T10:24:27.312Z,1576
2022-08-03T10:25:33.039Z,1576.9
2022-08-03T10:26:27.241Z,1577.2
2022-08-03T10:27:27.237Z,1577.4
2022-08-03T10:28:27.237Z,1577.4
2022-08-03T10:29:27.240Z,1577.7
2022-08-03T10:30:27.235Z,1577.3
2022-08-03T10:31:27.256Z,1577.6
2022-08-03T10:32:27.249Z,1577.6
2022-08-03T10:33:50.310Z,1575.7
2022-08-03T10:34:27.246Z,1576.8
2022-08-03T10:35:27.249Z,1576.8
2022-08-03T10:36:27.244Z,1576.6
2022-08-03T10:37:27.249Z,1576.7
2022-08-03T10:38:27.241Z,1577.3
2022-08-03T10:39:27.245Z,1577.5
2022-08-03T10:40:47.615Z,1578.3
2022-08-03T10:41:27.854Z,1578.8
2022-08-03T10:42:27.248Z,1576.6
2022-08-03T10:43:27.244Z,1575.5
2022-08-03T10:44:27.257Z,1576.2
2022-08-03T10:45:27.278Z,1575.4
2022-08-03T10:46:27.261Z,1576.1
2022-08-03T10:47:27.262Z,1576.6
2022-08-03T10:48:27.254Z,1576.8
2022-08-03T10:49:34.678Z,1577.3
2022-08-03T10:50:27.248Z,1578
2022-08-03T10:51:27.257Z,1578.3
2022-08-03T10:52:32.440Z,1576.3
2022-08-03T10:53:27.252Z,1576.8
2022-08-03T10:54:27.272Z,1577.2
2022-08-03T10:55:27.259Z,1578
2022-08-03T10:56:41.561Z,1577.7
2022-08-03T10:57:27.265Z,1578.7
2022-08-03T10:58:30.749Z,1577.4
2022-08-03T10:59:27.787Z,1575.8
2022-08-03T11:00:27.428Z,1573.7
2022-08-03T11:01:27.258Z,1573.9
2022-08-03T11:02:27.263Z,1575.4
2022-08-03T11:03:27.265Z,1576.5
2022-08-03T11:04:27.270Z,1577.1
2022-08-03T11:05:27.259Z,1578.5
2022-08-03T11:06:27.271Z,1578.8
2022-08-03T11:07:27.262Z,1577.9
2022-08-03T11:08:27.262Z,1577.7
2022-08-03T11:09:27.269Z,1578.8
2022-08-03T11:10:27.273Z,1579
2022-08-03T11:11:27.269Z,1579.6
2022-08-03T11:12:30.552Z,1580.7
2022-08-03T11:13:27.268Z,1579.4
2022-08-03T11:14:27.274Z,1578.7
2022-08-03T11:15:27.276Z,1577
2022-08-03T11:16:27.272Z,1576.8
2022-08-03T11:17:27.270Z,1573.2
2022-08-03T11:18:27.288Z,1572.3
2022-08-03T11:19:27.680Z,1573.3
2022-08-03T11:20:27.273Z,1572.5
2022-08-03T11:21:30.341Z,1574.4
2022-08-03T11:22:27.274Z,1575.5
2022-08-03T11:24:03.074Z,1576.7
2022-08-03T11:24:27.286Z,1577.8
2022-08-03T11:25:53.758Z,1577.8
2022-08-03T11:26:27.273Z,1577.8
2022-08-03T11:27:27.293Z,1578.1
2022-08-03T11:28:27.280Z,1579
2022-08-03T11:29:27.280Z,1578.6
2022-08-03T11:30:27.699Z,1579.3
2022-08-03T11:31:48.899Z,1576
2022-08-03T11:32:27.293Z,1576.4
2022-08-03T11:33:27.287Z,1577.7
2022-08-03T11:34:27.285Z,1577.9
2022-08-03T11:35:27.287Z,1575.9
2022-08-03T11:36:32.393Z,1576.1
2022-08-03T11:37:32.875Z,1575.5
2022-08-03T11:38:27.292Z,1577.6
2022-08-03T11:39:27.292Z,1578.6
2022-08-03T11:40:27.294Z,1578.8
2022-08-03T11:41:27.282Z,1578.1
2022-08-03T11:42:27.301Z,1577.4
2022-08-03T11:43:30.771Z,1578.6
2022-08-03T11:44:27.293Z,1577.2
2022-08-03T11:45:27.293Z,1577.4
2022-08-03T11:46:29.558Z,1578
2022-08-03T11:47:27.323Z,1579
2022-08-03T11:48:27.305Z,1577.6
2022-08-03T11:49:27.372Z,1578
2022-08-03T11:50:27.308Z,1578.4
2022-08-03T11:51:27.295Z,1580
2022-08-03T11:52:28.730Z,1580.2
2022-08-03T11:53:27.304Z,1580.6
2022-08-03T11:54:27.295Z,1580.2
2022-08-03T11:55:30.579Z,1581.3
2022-08-03T11:56:27.320Z,1582.3
2022-08-03T11:59:10.718Z,1581.6
2022-08-03T11:59:19.212Z,1581.4
2022-08-03T11:59:27.307Z,1583.3
2022-08-03T12:00:27.329Z,1581.1
2022-08-03T12:01:27.323Z,1578.8
2022-08-03T12:02:28.074Z,1576.6
2022-08-03T12:03:27.339Z,1576.8
2022-08-03T12:04:27.305Z,1577.4
2022-08-03T12:05:27.302Z,1576.2
2022-08-03T12:06:27.316Z,1575.8
2022-08-03T12:08:03.734Z,1575.2
2022-08-03T12:08:27.313Z,1575
2022-08-03T12:09:27.314Z,1575
2022-08-03T12:10:27.313Z,1575.3
2022-08-03T12:11:27.308Z,1576.5
2022-08-03T12:12:27.314Z,1576.6
2022-08-03T12:14:10.683Z,1576.7
2022-08-03T12:14:48.376Z,1576.8
2022-08-03T12:15:27.313Z,1577.5
2022-08-03T12:16:27.312Z,1578.2
2022-08-03T12:17:27.314Z,1575.1
2022-08-03T12:18:27.312Z,1575.9
2022-08-03T12:19:27.312Z,1576.9
2022-08-03T12:20:34.426Z,1577.7
2022-08-03T12:21:27.325Z,1577.8
2022-08-03T12:22:27.323Z,1578
2022-08-03T12:23:27.321Z,1577.8
2022-08-03T12:24:27.312Z,1577.7
2022-08-03T12:25:38.774Z,1577.4
2022-08-03T12:26:27.328Z,1576.2
2022-08-03T12:27:27.324Z,1577.1
2022-08-03T12:28:36.930Z,1577
2022-08-03T12:29:27.334Z,1577.9
2022-08-03T12:30:27.328Z,1577.7
2022-08-03T12:31:27.334Z,1575.4
2022-08-03T12:32:27.337Z,1575.4
2022-08-03T12:33:27.335Z,1576.4
2022-08-03T12:34:30.933Z,1577.1
2022-08-03T12:35:27.326Z,1577.7
2022-08-03T12:36:27.336Z,1578.6
2022-08-03T12:37:27.327Z,1579.2
2022-08-03T12:38:27.327Z,1580.5
2022-08-03T12:39:27.330Z,1581.1
2022-08-03T12:40:28.347Z,1580.6
2022-08-03T12:41:27.335Z,1581.3
2022-08-03T12:42:27.333Z,1582.5
2022-08-03T12:43:27.338Z,1581.4